createdAt,value
2019-01-30T00:01:21.414Z,100319.88
2019-01-30T00:03:52.277Z,100329.83
2019-01-30T00:06:22.020Z,100326.76
2019-01-30T00:08:52.359Z,100333.27
2019-01-30T00:11:22.054Z,100335.66
2019-01-30T00:13:51.744Z,100333.41
2019-01-30T00:16:21.385Z,100331.63
2019-01-30T00:18:52.735Z,100333.19
2019-01-30T00:21:22.474Z,100333.95
2019-01-30T00:23:52.422Z,100337.77
2019-01-30T00:26:22.785Z,100345.33
2019-01-30T00:28:52.878Z,100347.84
2019-01-30T00:31:22.524Z,100347.89
2019-01-30T00:33:51.976Z,100352.53
2019-01-30T00:36:22.426Z,100352.97
2019-01-30T00:38:52.067Z,100356.31
2019-01-30T00:41:21.717Z,100352.14
2019-01-30T00:43:53.173Z,100353.07
2019-01-30T00:46:22.920Z,100357.30
2019-01-30T00:48:52.621Z,100353.23
2019-01-30T00:51:22.305Z,100347.52
2019-01-30T00:53:52.246Z,100350.58
2019-01-30T00:56:22.807Z,100349.84
2019-01-30T00:58:53.031Z,100356.57
2019-01-30T01:01:22.777Z,100354.53
2019-01-30T01:03:52.475Z,100356.16
2019-01-30T01:06:22.649Z,100360.28
2019-01-30T01:08:54.060Z,100363.98
2019-01-30T01:11:24.026Z,100363.98
2019-01-30T01:13:54.219Z,100369.40
2019-01-30T01:16:23.843Z,100369.41
2019-01-30T01:18:53.703Z,100366.11
2019-01-30T01:21:24.866Z,100371.91
2019-01-30T01:23:54.958Z,100369.81
2019-01-30T01:26:26.566Z,100370.23
2019-01-30T01:28:59.698Z,100372.37
2019-01-30T01:31:29.588Z,100373.71
2019-01-30T01:33:59.656Z,100379.09
2019-01-30T01:36:29.573Z,100374.45
2019-01-30T01:39:00.225Z,100371.48
2019-01-30T01:41:29.961Z,100380.14
2019-01-30T01:43:59.878Z,100375.05
2019-01-30T01:46:29.675Z,100383.37
2019-01-30T01:48:59.355Z,100373.73
2019-01-30T01:51:28.979Z,100367.11
2019-01-30T01:53:58.713Z,100370.45
2019-01-30T01:56:28.791Z,100379.62
2019-01-30T01:58:58.418Z,100378.80
2019-01-30T02:01:29.610Z,100387.55
2019-01-30T02:04:00.202Z,100381.66
2019-01-30T02:06:32.425Z,100379.11
2019-01-30T02:09:03.942Z,100384.48
2019-01-30T02:11:34.786Z,100383.16
2019-01-30T02:14:04.804Z,100382.27
2019-01-30T02:16:34.427Z,100386.76
2019-01-30T02:19:05.710Z,100392.55
2019-01-30T02:21:35.335Z,100387.48
2019-01-30T02:24:04.967Z,100382.84
2019-01-30T02:26:34.627Z,100379.08
2019-01-30T02:29:04.586Z,100378.63
2019-01-30T02:31:34.291Z,100379.08
2019-01-30T02:34:03.950Z,100375.32
2019-01-30T02:36:35.828Z,100376.53
2019-01-30T02:39:07.672Z,100379.45
2019-01-30T02:41:37.485Z,100378.63
2019-01-30T02:44:07.386Z,100377.31
2019-01-30T02:46:37.181Z,100374.75
2019-01-30T02:49:07.516Z,100372.18
2019-01-30T02:51:37.482Z,100372.11
2019-01-30T02:54:07.221Z,100377.45
2019-01-30T02:56:36.904Z,100375.70
2019-01-30T02:59:06.523Z,100373.97
2019-01-30T03:01:37.892Z,100372.66
2019-01-30T03:04:07.576Z,100379.28
2019-01-30T03:06:37.934Z,100384.23
2019-01-30T03:09:10.205Z,100379.23
2019-01-30T03:11:40.071Z,100384.66
2019-01-30T03:14:10.017Z,100379.23
2019-01-30T03:16:39.873Z,100389.66
2019-01-30T03:19:09.617Z,100389.66
2019-01-30T03:21:40.176Z,100385.42
2019-01-30T03:24:11.493Z,100388.28
2019-01-30T03:26:41.285Z,100386.55
2019-01-30T03:29:11.082Z,100388.98
2019-01-30T03:31:40.883Z,100387.26
2019-01-30T03:34:10.607Z,100389.41
2019-01-30T03:36:40.220Z,100389.84
2019-01-30T03:39:10.832Z,100385.30
2019-01-30T03:41:41.028Z,100389.13
2019-01-30T03:44:11.159Z,100397.55
2019-01-30T03:46:41.025Z,100391.38
2019-01-30T03:49:11.068Z,100385.23
2019-01-30T03:51:41.473Z,100392.45
2019-01-30T03:54:11.297Z,100387.52
2019-01-30T03:56:41.221Z,100395.13
2019-01-30T03:59:11.217Z,100398.07
2019-01-30T04:01:41.498Z,100394.79
2019-01-30T04:04:11.178Z,100393.12
2019-01-30T04:06:40.813Z,100396.94
2019-01-30T04:09:10.497Z,100396.62
2019-01-30T04:11:40.769Z,100395.91
2019-01-30T04:14:10.800Z,100395.27
2019-01-30T04:16:40.454Z,100391.66
2019-01-30T04:19:10.348Z,100394.28
2019-01-30T04:21:40.633Z,100401.92
2019-01-30T04:24:10.606Z,100399.09
2019-01-30T04:26:40.240Z,100405.83
2019-01-30T04:29:09.870Z,100405.87
2019-01-30T04:31:39.823Z,100411.70
2019-01-30T04:34:10.028Z,100416.62
2019-01-30T04:36:40.118Z,100416.84
2019-01-30T04:39:09.879Z,100415.59
2019-01-30T04:41:40.348Z,100422.78
2019-01-30T04:44:10.401Z,100420.75
2019-01-30T04:46:40.318Z,100414.58
2019-01-30T04:49:09.955Z,100417.91
2019-01-30T04:51:39.607Z,100417.54
2019-01-30T04:54:10.563Z,100421.67
2019-01-30T04:56:40.773Z,100425.38
2019-01-30T04:59:10.487Z,100420.78
2019-01-30T05:01:49.488Z,100420.70
2019-01-30T05:04:11.478Z,100421.06
2019-01-30T05:06:41.102Z,100418.52
2019-01-30T05:09:11.383Z,100418.94
2019-01-30T05:11:41.285Z,100411.88
2019-01-30T05:14:11.435Z,100412.30
2019-01-30T05:16:42.275Z,100407.71
2019-01-30T05:19:12.163Z,100408.50
2019-01-30T05:21:42.262Z,100403.91
2019-01-30T05:24:12.326Z,100411.38
2019-01-30T05:26:42.108Z,100412.00
2019-01-30T05:29:11.740Z,100417.34
2019-01-30T05:31:42.884Z,100413.22
2019-01-30T05:34:12.571Z,100409.45
2019-01-30T05:36:42.872Z,100411.55
2019-01-30T05:39:12.715Z,100406.95
2019-01-30T05:41:42.674Z,100412.73
2019-01-30T05:44:12.297Z,100406.95
2019-01-30T05:46:42.035Z,100407.83
2019-01-30T05:49:11.672Z,100416.19
2019-01-30T05:51:42.203Z,100413.32
2019-01-30T05:54:11.707Z,100412.94
2019-01-30T05:56:41.399Z,100420.83
2019-01-30T05:59:11.066Z,100421.24
2019-01-30T06:01:40.750Z,100422.48
2019-01-30T06:04:10.382Z,100427.86
2019-01-30T06:06:40.755Z,100433.66
2019-01-30T06:09:10.688Z,100437.82
2019-01-30T06:11:40.319Z,100439.39
2019-01-30T06:14:10.935Z,100438.82
2019-01-30T06:16:40.768Z,100443.83
2019-01-30T06:19:11.961Z,100437.57
2019-01-30T06:21:41.961Z,100440.91
2019-01-30T06:24:12.595Z,100448.48
2019-01-30T06:26:42.607Z,100441.06
2019-01-30T06:29:12.373Z,100447.42
2019-01-30T06:31:42.133Z,100440.89
2019-01-30T06:34:12.631Z,100442.25
2019-01-30T06:36:42.940Z,100449.89
2019-01-30T06:39:12.615Z,100445.02
2019-01-30T06:41:42.246Z,100451.36
2019-01-30T06:44:11.872Z,100450.53
2019-01-30T06:46:42.684Z,100453.03
2019-01-30T06:49:12.259Z,100454.65
2019-01-30T06:51:42.380Z,100459.16
2019-01-30T06:54:12.070Z,100462.03
2019-01-30T06:56:42.469Z,100467.45
2019-01-30T06:59:12.438Z,100466.98
2019-01-30T07:01:43.555Z,100464.06
2019-01-30T07:04:13.185Z,100469.07
2019-01-30T07:06:42.825Z,100476.53
2019-01-30T07:09:14.245Z,100468.11
2019-01-30T07:11:43.881Z,100462.55
2019-01-30T07:14:14.095Z,100467.04
2019-01-30T07:16:45.114Z,100472.41
2019-01-30T07:19:15.310Z,100471.11
2019-01-30T07:21:45.111Z,100472.26
2019-01-30T07:24:14.934Z,100482.13
2019-01-30T07:26:44.390Z,100478.27
2019-01-30T07:29:14.282Z,100475.19
2019-01-30T07:31:44.268Z,100474.61
2019-01-30T07:34:14.016Z,100475.29
2019-01-30T07:36:45.731Z,100474.75
2019-01-30T07:39:17.101Z,100480.95
2019-01-30T07:41:47.012Z,100484.13
2019-01-30T07:44:18.202Z,100487.81
2019-01-30T07:46:48.139Z,100489.37
2019-01-30T07:49:18.025Z,100485.02
2019-01-30T07:51:47.932Z,100487.34
2019-01-30T07:54:18.390Z,100492.58
2019-01-30T07:56:48.276Z,100491.50
2019-01-30T07:59:18.813Z,100493.02
2019-01-30T08:01:50.179Z,100499.53
2019-01-30T08:04:19.809Z,100495.98
2019-01-30T08:06:49.719Z,100492.46
2019-01-30T08:09:19.589Z,100496.44
2019-01-30T08:11:49.898Z,100493.31
2019-01-30T08:14:19.536Z,100494.99
2019-01-30T08:16:50.375Z,100497.55
2019-01-30T08:19:20.856Z,100495.76
2019-01-30T08:21:51.953Z,100500.34
2019-01-30T08:24:22.780Z,100499.36
2019-01-30T08:26:53.154Z,100505.72
2019-01-30T08:29:23.173Z,100506.20
2019-01-30T08:31:53.082Z,100510.05
2019-01-30T08:34:23.675Z,100512.15
2019-01-30T08:36:53.373Z,100525.17
2019-01-30T08:39:23.083Z,100527.63
2019-01-30T08:41:52.728Z,100526.01
2019-01-30T08:44:22.345Z,100529.88
2019-01-30T08:46:52.016Z,100530.33
2019-01-30T08:49:22.119Z,100526.28
2019-01-30T08:51:51.931Z,100530.90
2019-01-30T08:54:22.268Z,100539.70
2019-01-30T08:56:53.039Z,100540.54
2019-01-30T08:59:23.105Z,100545.97
2019-01-30T09:01:52.798Z,100546.95
2019-01-30T09:04:23.473Z,100543.39
2019-01-30T09:06:54.104Z,100544.08
2019-01-30T09:09:24.087Z,100543.44
2019-01-30T09:11:54.059Z,100549.08
2019-01-30T09:14:23.774Z,100552.59
2019-01-30T09:16:54.115Z,100551.01
2019-01-30T09:19:24.811Z,100551.59
2019-01-30T09:21:56.718Z,100557.69
2019-01-30T09:24:26.369Z,100564.91
2019-01-30T09:26:56.108Z,100567.27
2019-01-30T09:29:26.259Z,100566.55
2019-01-30T09:31:56.217Z,100563.25
2019-01-30T09:34:25.959Z,100566.13
2019-01-30T09:36:55.594Z,100566.85
2019-01-30T09:39:25.267Z,100570.81
2019-01-30T09:41:54.901Z,100566.52
2019-01-30T09:44:24.853Z,100571.95
2019-01-30T09:46:54.692Z,100577.76
2019-01-30T09:49:28.396Z,100574.77
2019-01-30T09:51:58.252Z,100578.84
2019-01-30T09:54:27.887Z,100575.95
2019-01-30T09:56:57.816Z,100573.88
2019-01-30T09:59:27.552Z,100577.08
2019-01-30T10:01:57.428Z,100574.68
2019-01-30T10:04:27.058Z,100568.95
2019-01-30T10:06:56.922Z,100575.63
2019-01-30T10:09:26.684Z,100578.85
2019-01-30T10:11:56.340Z,100581.20
2019-01-30T10:14:26.066Z,100573.94
2019-01-30T10:16:55.927Z,100574.70
2019-01-30T10:19:25.710Z,100581.11
2019-01-30T10:21:55.878Z,100578.76
2019-01-30T10:24:29.104Z,100583.59
2019-01-30T10:26:58.745Z,100576.99
2019-01-30T10:29:28.553Z,100575.06
2019-01-30T10:31:58.694Z,100571.14
2019-01-30T10:34:30.133Z,100574.92
2019-01-30T10:36:59.936Z,100576.44
2019-01-30T10:39:29.455Z,100572.17
2019-01-30T10:41:59.216Z,100576.27
2019-01-30T10:44:29.013Z,100585.77
2019-01-30T10:47:00.139Z,100575.30
2019-01-30T10:49:29.779Z,100577.25
2019-01-30T10:51:59.656Z,100573.39
2019-01-30T10:54:29.811Z,100568.77
2019-01-30T10:57:00.210Z,100566.92
2019-01-30T10:59:29.863Z,100560.16
2019-01-30T11:01:59.733Z,100556.81
2019-01-30T11:04:29.360Z,100560.81
2019-01-30T11:06:58.978Z,100559.15
2019-01-30T11:09:28.667Z,100557.06
2019-01-30T11:11:58.375Z,100561.48
2019-01-30T11:14:28.272Z,100557.94
2019-01-30T11:16:59.079Z,100553.30
2019-01-30T11:19:29.658Z,100554.92
2019-01-30T11:22:00.557Z,100556.02
2019-01-30T11:24:30.341Z,100559.78
2019-01-30T11:27:00.811Z,100561.02
2019-01-30T11:29:30.637Z,100555.04
2019-01-30T11:32:02.818Z,100559.29
2019-01-30T11:34:32.586Z,100554.20
2019-01-30T11:37:02.601Z,100555.85
2019-01-30T11:39:32.298Z,100552.81
2019-01-30T11:42:03.813Z,100552.23
2019-01-30T11:44:34.177Z,100548.67
2019-01-30T11:47:04.140Z,100544.73
2019-01-30T11:49:34.326Z,100543.58
2019-01-30T11:52:04.280Z,100542.40
2019-01-30T11:54:38.902Z,100544.89
2019-01-30T11:57:07.348Z,100542.78
2019-01-30T11:59:36.961Z,100539.84
2019-01-30T12:02:06.788Z,100542.86
2019-01-30T12:04:37.779Z,100543.62
2019-01-30T12:07:08.277Z,100544.72
2019-01-30T12:09:38.456Z,100545.52
2019-01-30T12:12:09.173Z,100544.23
2019-01-30T12:14:38.842Z,100542.17
2019-01-30T12:17:08.508Z,100539.22
2019-01-30T12:19:38.470Z,100544.45
2019-01-30T12:22:08.488Z,100542.49
2019-01-30T12:24:38.453Z,100542.59
2019-01-30T12:27:08.971Z,100541.05
2019-01-30T12:29:40.211Z,100540.62
2019-01-30T12:32:09.887Z,100541.97
2019-01-30T12:34:40.477Z,100544.19
2019-01-30T12:37:10.513Z,100542.91
2019-01-30T12:39:42.442Z,100545.16
2019-01-30T12:42:12.359Z,100540.14
2019-01-30T12:44:42.107Z,100539.53
2019-01-30T12:47:19.749Z,100538.92
2019-01-30T12:49:43.939Z,100535.64
2019-01-30T12:52:14.394Z,100532.83
2019-01-30T12:54:43.934Z,100526.35
2019-01-30T12:57:13.686Z,100524.77
2019-01-30T12:59:44.251Z,100525.63
2019-01-30T13:02:13.929Z,100524.03
2019-01-30T13:04:44.841Z,100516.97
2019-01-30T13:07:14.485Z,100518.31
2019-01-30T13:09:44.669Z,100520.12
2019-01-30T13:12:14.472Z,100524.69
2019-01-30T13:14:45.909Z,100525.27
2019-01-30T13:17:16.064Z,100521.20
2019-01-30T13:19:45.774Z,100524.98
2019-01-30T13:22:16.494Z,100521.55
2019-01-30T13:24:48.730Z,100526.67
2019-01-30T13:27:18.899Z,100518.47
2019-01-30T13:29:48.707Z,100530.05
2019-01-30T13:32:18.614Z,100522.92
2019-01-30T13:34:49.239Z,100526.53
2019-01-30T13:37:19.673Z,100528.20
2019-01-30T13:39:49.741Z,100533.34
2019-01-30T13:42:20.213Z,100531.53
2019-01-30T13:44:50.862Z,100526.91
2019-01-30T13:47:20.889Z,100534.72
2019-01-30T13:49:50.645Z,100532.00
2019-01-30T13:52:23.185Z,100533.47
2019-01-30T13:54:53.277Z,100537.17
2019-01-30T13:57:23.807Z,100533.69
2019-01-30T13:59:54.567Z,100528.96
2019-01-30T14:02:24.584Z,100528.63
2019-01-30T14:04:59.450Z,100530.19
2019-01-30T14:07:26.563Z,100536.13
2019-01-30T14:09:57.071Z,100533.31
2019-01-30T14:12:27.399Z,100539.89
2019-01-30T14:14:58.032Z,100531.09
2019-01-30T14:17:28.866Z,100535.30
2019-01-30T14:20:04.822Z,100531.64
2019-01-30T14:22:35.812Z,100540.12
2019-01-30T14:25:07.589Z,100540.93
2019-01-30T14:27:37.604Z,100534.16
2019-01-30T14:30:14.017Z,100541.38
2019-01-30T14:32:43.671Z,100544.50
2019-01-30T14:35:14.483Z,100542.02
2019-01-30T14:37:44.205Z,100544.92
2019-01-30T14:40:16.721Z,100544.23
2019-01-30T14:42:46.632Z,100537.20
2019-01-30T14:45:18.711Z,100551.94
2019-01-30T14:47:53.755Z,100547.66
2019-01-30T14:50:26.807Z,100545.48
2019-01-30T14:52:57.170Z,100541.91
2019-01-30T14:55:27.825Z,100539.55
2019-01-30T14:57:58.389Z,100548.13
2019-01-30T15:00:31.009Z,100542.16
2019-01-30T15:03:01.639Z,100544.55
2019-01-30T15:05:31.536Z,100547.63
2019-01-30T15:08:01.656Z,100542.24
2019-01-30T15:10:31.415Z,100548.15
2019-01-30T15:13:01.266Z,100550.62
2019-01-30T15:15:32.881Z,100548.91
2019-01-30T15:18:02.839Z,100549.66
2019-01-30T15:20:34.811Z,100550.34
2019-01-30T15:23:06.115Z,100546.44
2019-01-30T15:25:35.766Z,100549.63
2019-01-30T15:28:05.765Z,100550.64
2019-01-30T15:30:43.678Z,100551.30
2019-01-30T15:33:14.817Z,100552.73
2019-01-30T15:35:46.946Z,100552.48
2019-01-30T15:38:16.657Z,100557.25
2019-01-30T15:40:48.025Z,100557.87
2019-01-30T15:43:20.176Z,100558.86
2019-01-30T15:45:49.826Z,100557.34
2019-01-30T15:48:21.026Z,100554.57
2019-01-30T15:50:51.021Z,100552.58
2019-01-30T15:53:20.669Z,100556.48
2019-01-30T15:56:08.004Z,100553.69
2019-01-30T15:58:57.773Z,100550.02
2019-01-30T16:01:27.558Z,100549.70
2019-01-30T16:03:58.060Z,100548.94
2019-01-30T16:06:27.989Z,100545.27
2019-01-30T16:08:58.591Z,100548.27
2019-01-30T16:11:28.702Z,100549.19
2019-01-30T16:13:59.444Z,100549.23
2019-01-30T16:16:29.159Z,100556.81
2019-01-30T16:18:59.172Z,100554.38
2019-01-30T16:21:28.817Z,100555.28
2019-01-30T16:23:58.856Z,100559.91
2019-01-30T16:26:28.501Z,100557.03
2019-01-30T16:28:59.013Z,100560.39
2019-01-30T16:31:28.950Z,100559.59
2019-01-30T16:33:59.413Z,100561.71
2019-01-30T16:36:29.490Z,100562.13
2019-01-30T16:39:01.288Z,100562.16
2019-01-30T16:41:31.101Z,100557.19
2019-01-30T16:44:00.812Z,100559.30
2019-01-30T16:46:30.484Z,100555.59
2019-01-30T16:49:00.443Z,100554.36
2019-01-30T16:51:30.084Z,100551.48
2019-01-30T16:53:59.867Z,100550.67
2019-01-30T16:56:29.500Z,100554.05
2019-01-30T16:58:59.643Z,100554.07
2019-01-30T17:01:30.766Z,100559.06
2019-01-30T17:04:01.573Z,100551.18
2019-01-30T17:06:31.327Z,100555.37
2019-01-30T17:09:01.031Z,100564.95
2019-01-30T17:11:30.967Z,100562.52
2019-01-30T17:14:00.604Z,100567.95
2019-01-30T17:16:33.369Z,100565.48
2019-01-30T17:19:03.249Z,100563.80
2019-01-30T17:21:33.923Z,100566.75
2019-01-30T17:24:03.641Z,100562.59
2019-01-30T17:26:34.809Z,100565.50
2019-01-30T17:29:04.514Z,100561.36
2019-01-30T17:31:35.993Z,100568.02
2019-01-30T17:34:05.904Z,100570.96
2019-01-30T17:36:37.559Z,100566.83
2019-01-30T17:39:09.483Z,100565.60
2019-01-30T17:41:39.502Z,100566.84
2019-01-30T17:44:12.785Z,100563.53
2019-01-30T17:46:44.038Z,100558.56
2019-01-30T17:49:13.667Z,100563.16
2019-01-30T17:51:43.662Z,100564.85
2019-01-30T17:54:13.382Z,100571.92
2019-01-30T17:56:43.083Z,100570.28
2019-01-30T17:59:13.215Z,100568.61
2019-01-30T18:01:43.213Z,100566.14
2019-01-30T18:04:15.522Z,100573.64
2019-01-30T18:06:46.087Z,100569.05
2019-01-30T18:09:16.051Z,100569.89
2019-01-30T18:11:48.990Z,100557.41
2019-01-30T18:14:18.989Z,100561.56
2019-01-30T18:16:48.909Z,100558.70
2019-01-30T18:19:20.135Z,100562.44
2019-01-30T18:21:49.903Z,100559.55
2019-01-30T18:24:20.850Z,100557.07
2019-01-30T18:26:51.113Z,100563.30
2019-01-30T18:29:21.060Z,100560.83
2019-01-30T18:31:52.572Z,100557.93
2019-01-30T18:34:22.570Z,100557.54
2019-01-30T18:36:53.648Z,100562.96
2019-01-30T18:39:23.354Z,100560.07
2019-01-30T18:41:53.043Z,100560.89
2019-01-30T18:44:22.977Z,100562.58
2019-01-30T18:46:52.736Z,100570.47
2019-01-30T18:49:23.700Z,100570.05
2019-01-30T18:51:53.340Z,100570.05
2019-01-30T18:54:24.088Z,100568.00
2019-01-30T18:56:53.840Z,100567.58
2019-01-30T18:59:25.942Z,100568.00
2019-01-30T19:01:55.618Z,100569.68
2019-01-30T19:04:26.226Z,100574.25
2019-01-30T19:06:55.877Z,100572.61
2019-01-30T19:09:26.282Z,100586.33
2019-01-30T19:11:55.738Z,100580.52
2019-01-30T19:14:25.422Z,100578.43
2019-01-30T19:16:55.219Z,100574.28
2019-01-30T19:19:25.236Z,100580.12
2019-01-30T19:21:54.921Z,100584.27
2019-01-30T19:24:24.565Z,100583.46
2019-01-30T19:26:56.318Z,100588.86
2019-01-30T19:29:25.960Z,100575.55
2019-01-30T19:31:56.946Z,100580.97
2019-01-30T19:34:26.979Z,100586.77
2019-01-30T19:37:03.556Z,100583.86
2019-01-30T19:39:29.381Z,100589.67
2019-01-30T19:41:59.038Z,100588.42
2019-01-30T19:44:28.671Z,100591.76
2019-01-30T19:46:58.751Z,100592.17
2019-01-30T19:49:29.587Z,100593.02
2019-01-30T19:51:59.243Z,100597.17
2019-01-30T19:54:28.964Z,100591.38
2019-01-30T19:56:58.601Z,100588.04
2019-01-30T19:59:28.109Z,100594.69
2019-01-30T20:01:57.825Z,100595.10
2019-01-30T20:04:28.262Z,100601.75
2019-01-30T20:07:01.065Z,100603.00
2019-01-30T20:09:31.136Z,100600.09
2019-01-30T20:12:01.020Z,100600.10
2019-01-30T20:14:31.530Z,100596.36
2019-01-30T20:17:02.261Z,100600.95
2019-01-30T20:19:32.285Z,100603.43
2019-01-30T20:22:02.880Z,100603.43
2019-01-30T20:24:32.708Z,100598.45
2019-01-30T20:27:03.898Z,100600.13
2019-01-30T20:29:36.379Z,100598.48
2019-01-30T20:32:09.295Z,100600.14
2019-01-30T20:34:39.374Z,100597.25
2019-01-30T20:37:09.000Z,100598.89
2019-01-30T20:39:38.873Z,100599.74
2019-01-30T20:42:10.355Z,100600.17
2019-01-30T20:44:41.825Z,100592.67
2019-01-30T20:47:12.502Z,100599.75
2019-01-30T20:49:42.200Z,100600.18
2019-01-30T20:52:13.685Z,100605.98
2019-01-30T20:54:45.312Z,100606.41
2019-01-30T20:57:15.251Z,100603.09
2019-01-30T20:59:48.458Z,100604.30
2019-01-30T21:02:19.030Z,100605.98
2019-01-30T21:04:48.745Z,100600.56
2019-01-30T21:07:18.397Z,100600.98
2019-01-30T21:09:48.207Z,100604.73
2019-01-30T21:12:18.245Z,100603.50
2019-01-30T21:14:48.167Z,100607.25
2019-01-30T21:17:19.208Z,100606.42
2019-01-30T21:19:49.325Z,100607.25
2019-01-30T21:22:19.450Z,100597.69
2019-01-30T21:24:51.122Z,100598.94
2019-01-30T21:27:21.033Z,100599.75
2019-01-30T21:29:50.730Z,100590.61
2019-01-30T21:32:20.266Z,100592.27
2019-01-30T21:34:51.710Z,100598.91
2019-01-30T21:37:21.805Z,100602.65
2019-01-30T21:39:52.026Z,100601.38
2019-01-30T21:42:22.693Z,100592.22
2019-01-30T21:44:52.601Z,100589.27
2019-01-30T21:47:24.527Z,100595.06
2019-01-30T21:49:54.176Z,100589.20
2019-01-30T21:52:24.131Z,100588.30
2019-01-30T21:54:54.037Z,100587.44
2019-01-30T21:57:29.733Z,100579.10
2019-01-30T22:00:01.205Z,100581.95
2019-01-30T22:02:32.152Z,100577.33
2019-01-30T22:05:03.168Z,100567.33
2019-01-30T22:07:33.060Z,100569.78
2019-01-30T22:10:04.260Z,100568.52
2019-01-30T22:12:35.098Z,100558.05
2019-01-30T22:15:12.787Z,100570.11
2019-01-30T22:17:51.288Z,100573.05
2019-01-30T22:20:24.396Z,100574.70
2019-01-30T22:22:55.292Z,100574.34
2019-01-30T22:25:27.590Z,100570.17
2019-01-30T22:27:57.780Z,100572.70
2019-01-30T22:30:32.349Z,100573.09
2019-01-30T22:33:05.602Z,100571.80
2019-01-30T22:35:41.202Z,100571.75
2019-01-30T22:38:12.818Z,100570.86
2019-01-30T22:40:54.881Z,100576.64
2019-01-30T22:43:36.950Z,100567.84
2019-01-30T22:46:07.953Z,100566.95
2019-01-30T22:48:37.968Z,100563.59
2019-01-30T22:51:10.980Z,100565.20
2019-01-30T22:53:43.812Z,100564.30
2019-01-30T22:56:18.280Z,100565.08
2019-01-30T22:58:50.466Z,100570.49
2019-01-30T23:01:30.915Z,100557.95
2019-01-30T23:04:07.257Z,100558.34
2019-01-30T23:07:01.099Z,100563.70
2019-01-30T23:09:59.400Z,100562.44
2019-01-30T23:12:59.554Z,100559.84
2019-01-30T23:15:41.445Z,100557.64
2019-01-30T23:18:40.027Z,100543.02
2019-01-30T23:21:19.950Z,100545.52
2019-01-30T23:24:12.629Z,100549.23
2019-01-30T23:26:45.316Z,100549.23
2019-01-30T23:29:25.654Z,100544.23
2019-01-30T23:32:14.737Z,100545.89
2019-01-30T23:34:53.429Z,100540.84
2019-01-30T23:37:38.783Z,100533.72
2019-01-30T23:40:23.385Z,100535.34
2019-01-30T23:43:21.905Z,100530.67
2019-01-30T23:46:16.228Z,100529.39
2019-01-30T23:49:05.810Z,100532.68
2019-01-30T23:51:56.843Z,100531.38
2019-01-30T23:54:47.738Z,100534.72
2019-01-30T23:57:29.437Z,100532.63
